sensor_id;sensor_type;location;lat;lon;timestamp;temperature;humidity
35920;DHT22;36160;53.370;-6.196;2022-12-18T00:01:30;2.50;99.90
35920;DHT22;36160;53.370;-6.196;2022-12-18T00:03:59;2.50;99.90
35920;DHT22;36160;53.370;-6.196;2022-12-18T00:06:27;2.40;99.90
35920;DHT22;36160;53.370;-6.196;2022-12-18T00:08:55;2.40;99.90
35920;DHT22;36160;53.370;-6.196;2022-12-18T00:11:24;2.30;99.90
35920;DHT22;36160;53.370;-6.196;2022-12-18T00:13:53;2.40;99.90
35920;DHT22;36160;53.370;-6.196;2022-12-18T00:16:22;2.40;99.90
35920;DHT22;36160;53.370;-6.196;2022-12-18T00:18:50;2.40;99.90
35920;DHT22;36160;53.370;-6.196;2022-12-18T00:21:16;2.60;99.90
35920;DHT22;36160;53.370;-6.196;2022-12-18T00:23:45;2.70;99.90
35920;DHT22;36160;53.370;-6.196;2022-12-18T00:26:15;2.70;99.90
35920;DHT22;36160;53.370;-6.196;2022-12-18T00:28:42;2.80;99.90
35920;DHT22;36160;53.370;-6.196;2022-12-18T00:31:10;3.10;99.90
35920;DHT22;36160;53.370;-6.196;2022-12-18T00:33:37;3.10;99.90
35920;DHT22;36160;53.370;-6.196;2022-12-18T00:36:09;3.40;99.90
35920;DHT22;36160;53.370;-6.196;2022-12-18T00:38:37;3.50;99.90
35920;DHT22;36160;53.370;-6.196;2022-12-18T00:41:05;3.60;99.90
35920;DHT22;36160;53.370;-6.196;2022-12-18T00:43:31;3.50;99.90
35920;DHT22;36160;53.370;-6.196;2022-12-18T00:45:57;3.70;99.90
35920;DHT22;36160;53.370;-6.196;2022-12-18T00:48:22;3.60;99.90
35920;DHT22;36160;53.370;-6.196;2022-12-18T00:50:49;3.80;99.90
35920;DHT22;36160;53.370;-6.196;2022-12-18T00:53:16;3.70;99.90
35920;DHT22;36160;53.370;-6.196;2022-12-18T00:55:42;3.90;99.90
35920;DHT22;36160;53.370;-6.196;2022-12-18T00:58:09;3.90;99.90
35920;DHT22;36160;53.370;-6.196;2022-12-18T01:00:36;3.90;99.90
35920;DHT22;36160;53.370;-6.196;2022-12-18T01:03:02;4.00;99.90
35920;DHT22;36160;53.370;-6.196;2022-12-18T01:05:27;3.90;99.90
35920;DHT22;36160;53.370;-6.196;2022-12-18T01:07:53;4.00;99.90
35920;DHT22;36160;53.370;-6.196;2022-12-18T01:10:19;4.10;99.90
35920;DHT22;36160;53.370;-6.196;2022-12-18T01:12:44;4.00;99.90
35920;DHT22;36160;53.370;-6.196;2022-12-18T01:15:12;4.00;99.90
35920;DHT22;36160;53.370;-6.196;2022-12-18T01:17:37;3.90;99.90
35920;DHT22;36160;53.370;-6.196;2022-12-18T01:20:04;4.00;99.90
35920;DHT22;36160;53.370;-6.196;2022-12-18T01:22:30;3.90;99.90
35920;DHT22;36160;53.370;-6.196;2022-12-18T01:24:55;4.00;99.90
35920;DHT22;36160;53.370;-6.196;2022-12-18T01:27:21;3.90;99.90
35920;DHT22;36160;53.370;-6.196;2022-12-18T01:29:46;4.00;99.90
35920;DHT22;36160;53.370;-6.196;2022-12-18T01:32:12;3.90;99.90
35920;DHT22;36160;53.370;-6.196;2022-12-18T01:34:38;3.90;99.90
35920;DHT22;36160;53.370;-6.196;2022-12-18T01:37:05;3.90;99.90
35920;DHT22;36160;53.370;-6.196;2022-12-18T01:39:31;3.90;99.90
35920;DHT22;36160;53.370;-6.196;2022-12-18T01:41:58;3.70;99.90
35920;DHT22;36160;53.370;-6.196;2022-12-18T01:44:59;3.70;99.90
35920;DHT22;36160;53.370;-6.196;2022-12-18T01:47:27;3.70;99.90
35920;DHT22;36160;53.370;-6.196;2022-12-18T01:49:54;3.60;99.90
35920;DHT22;36160;53.370;-6.196;2022-12-18T01:52:21;3.50;99.90
35920;DHT22;36160;53.370;-6.196;2022-12-18T01:54:49;3.50;99.90
35920;DHT22;36160;53.370;-6.196;2022-12-18T01:57:16;3.50;99.90
35920;DHT22;36160;53.370;-6.196;2022-12-18T01:59:43;3.40;99.90
35920;DHT22;36160;53.370;-6.196;2022-12-18T02:02:11;3.60;99.90
35920;DHT22;36160;53.370;-6.196;2022-12-18T02:04:37;3.70;99.90
35920;DHT22;36160;53.370;-6.196;2022-12-18T02:09:40;3.90;99.90
35920;DHT22;36160;53.370;-6.196;2022-12-18T02:12:20;4.00;99.90
35920;DHT22;36160;53.370;-6.196;2022-12-18T02:15:03;4.00;99.90
35920;DHT22;36160;53.370;-6.196;2022-12-18T02:17:40;4.10;99.90
35920;DHT22;36160;53.370;-6.196;2022-12-18T02:20:18;4.30;99.90
35920;DHT22;36160;53.370;-6.196;2022-12-18T02:28:22;4.80;99.90
35920;DHT22;36160;53.370;-6.196;2022-12-18T02:30:50;5.10;99.90
35920;DHT22;36160;53.370;-6.196;2022-12-18T02:33:19;5.10;99.90
35920;DHT22;36160;53.370;-6.196;2022-12-18T02:35:47;5.10;99.90
35920;DHT22;36160;53.370;-6.196;2022-12-18T02:38:14;5.30;99.90
35920;DHT22;36160;53.370;-6.196;2022-12-18T02:40:42;5.30;99.90
35920;DHT22;36160;53.370;-6.196;2022-12-18T02:43:11;5.50;99.90
35920;DHT22;36160;53.370;-6.196;2022-12-18T02:45:50;5.40;99.90
35920;DHT22;36160;53.370;-6.196;2022-12-18T02:48:34;5.60;99.90
35920;DHT22;36160;53.370;-6.196;2022-12-18T02:51:23;5.60;99.90
35920;DHT22;36160;53.370;-6.196;2022-12-18T02:53:59;5.60;99.90
35920;DHT22;36160;53.370;-6.196;2022-12-18T02:56:39;5.70;99.90
35920;DHT22;36160;53.370;-6.196;2022-12-18T02:59:17;5.80;99.90
35920;DHT22;36160;53.370;-6.196;2022-12-18T03:04:49;5.70;99.90
35920;DHT22;36160;53.370;-6.196;2022-12-18T03:07:25;5.80;99.90
35920;DHT22;36160;53.370;-6.196;2022-12-18T03:09:53;5.80;99.90
35920;DHT22;36160;53.370;-6.196;2022-12-18T03:12:28;5.80;99.90
35920;DHT22;36160;53.370;-6.196;2022-12-18T03:15:06;5.80;99.90
35920;DHT22;36160;53.370;-6.196;2022-12-18T03:17:33;5.80;99.90
35920;DHT22;36160;53.370;-6.196;2022-12-18T03:20:04;5.80;99.90
35920;DHT22;36160;53.370;-6.196;2022-12-18T03:22:33;5.80;99.90
35920;DHT22;36160;53.370;-6.196;2022-12-18T03:25:02;5.90;99.90
35920;DHT22;36160;53.370;-6.196;2022-12-18T03:27:31;5.90;99.90
35920;DHT22;36160;53.370;-6.196;2022-12-18T03:30:05;5.90;99.90
35920;DHT22;36160;53.370;-6.196;2022-12-18T03:32:56;6.00;99.90
35920;DHT22;36160;53.370;-6.196;2022-12-18T03:35:28;6.00;99.90
35920;DHT22;36160;53.370;-6.196;2022-12-18T03:37:55;5.90;99.90
35920;DHT22;36160;53.370;-6.196;2022-12-18T03:40:27;5.90;99.90
35920;DHT22;36160;53.370;-6.196;2022-12-18T03:43:20;5.90;99.90
35920;DHT22;36160;53.370;-6.196;2022-12-18T03:45:59;5.90;99.90
35920;DHT22;36160;53.370;-6.196;2022-12-18T03:48:32;5.90;99.90
35920;DHT22;36160;53.370;-6.196;2022-12-18T03:51:17;5.80;99.90
35920;DHT22;36160;53.370;-6.196;2022-12-18T03:53:52;5.90;99.90
35920;DHT22;36160;53.370;-6.196;2022-12-18T03:56:20;5.80;99.90
35920;DHT22;36160;53.370;-6.196;2022-12-18T03:58:48;5.90;99.90
35920;DHT22;36160;53.370;-6.196;2022-12-18T04:01:16;5.90;99.90
35920;DHT22;36160;53.370;-6.196;2022-12-18T04:03:44;5.90;99.90
35920;DHT22;36160;53.370;-6.196;2022-12-18T04:06:12;5.90;99.90
35920;DHT22;36160;53.370;-6.196;2022-12-18T04:08:39;6.00;99.90
35920;DHT22;36160;53.370;-6.196;2022-12-18T04:11:05;6.00;99.90
35920;DHT22;36160;53.370;-6.196;2022-12-18T04:13:37;6.00;99.90
35920;DHT22;36160;53.370;-6.196;2022-12-18T04:16:03;6.10;99.90
35920;DHT22;36160;53.370;-6.196;2022-12-18T04:18:28;6.00;99.90
35920;DHT22;36160;53.370;-6.196;2022-12-18T04:20:54;6.00;99.90
35920;DHT22;36160;53.370;-6.196;2022-12-18T04:23:20;6.10;99.90
35920;DHT22;36160;53.370;-6.196;2022-12-18T04:25:47;6.00;99.90
35920;DHT22;36160;53.370;-6.196;2022-12-18T04:28:13;6.10;99.90
35920;DHT22;36160;53.370;-6.196;2022-12-18T04:30:39;6.10;99.90
35920;DHT22;36160;53.370;-6.196;2022-12-18T04:33:09;6.20;99.90
35920;DHT22;36160;53.370;-6.196;2022-12-18T04:35:35;6.20;99.90
35920;DHT22;36160;53.370;-6.196;2022-12-18T04:38:01;6.10;99.90
35920;DHT22;36160;53.370;-6.196;2022-12-18T04:40:26;6.20;99.90
35920;DHT22;36160;53.370;-6.196;2022-12-18T04:42:52;6.20;99.90
35920;DHT22;36160;53.370;-6.196;2022-12-18T04:45:18;6.20;99.90
35920;DHT22;36160;53.370;-6.196;2022-12-18T04:47:43;6.20;99.90
35920;DHT22;36160;53.370;-6.196;2022-12-18T04:50:09;6.30;99.90
35920;DHT22;36160;53.370;-6.196;2022-12-18T04:52:36;6.30;99.90
35920;DHT22;36160;53.370;-6.196;2022-12-18T04:55:01;6.30;99.90
35920;DHT22;36160;53.370;-6.196;2022-12-18T04:57:27;6.30;99.90
35920;DHT22;36160;53.370;-6.196;2022-12-18T04:59:53;6.30;99.90
35920;DHT22;36160;53.370;-6.196;2022-12-18T05:02:19;6.40;99.90
35920;DHT22;36160;53.370;-6.196;2022-12-18T05:04:45;6.40;99.90
35920;DHT22;36160;53.370;-6.196;2022-12-18T05:07:11;6.40;99.90
35920;DHT22;36160;53.370;-6.196;2022-12-18T05:09:37;6.40;99.90
35920;DHT22;36160;53.370;-6.196;2022-12-18T05:12:02;6.40;99.90
35920;DHT22;36160;53.370;-6.196;2022-12-18T05:14:28;6.30;99.90
35920;DHT22;36160;53.370;-6.196;2022-12-18T05:16:54;6.40;99.90
35920;DHT22;36160;53.370;-6.196;2022-12-18T05:19:20;6.40;99.90
35920;DHT22;36160;53.370;-6.196;2022-12-18T05:21:46;6.40;99.90
35920;DHT22;36160;53.370;-6.196;2022-12-18T05:24:12;6.40;99.90
35920;DHT22;36160;53.370;-6.196;2022-12-18T05:26:37;6.40;99.90
35920;DHT22;36160;53.370;-6.196;2022-12-18T05:29:03;6.50;99.90
35920;DHT22;36160;53.370;-6.196;2022-12-18T05:31:29;6.50;99.90
35920;DHT22;36160;53.370;-6.196;2022-12-18T05:33:55;6.50;99.90
35920;DHT22;36160;53.370;-6.196;2022-12-18T05:36:21;6.40;99.90
35920;DHT22;36160;53.370;-6.196;2022-12-18T05:38:46;6.40;99.90
35920;DHT22;36160;53.370;-6.196;2022-12-18T05:41:12;6.40;99.90
35920;DHT22;36160;53.370;-6.196;2022-12-18T05:43:39;6.40;99.90
35920;DHT22;36160;53.370;-6.196;2022-12-18T05:46:12;6.40;99.90
35920;DHT22;36160;53.370;-6.196;2022-12-18T05:48:38;6.40;99.90
35920;DHT22;36160;53.370;-6.196;2022-12-18T05:51:18;6.40;99.90
35920;DHT22;36160;53.370;-6.196;2022-12-18T05:53:45;6.50;99.90
35920;DHT22;36160;53.370;-6.196;2022-12-18T05:56:16;6.40;99.90
35920;DHT22;36160;53.370;-6.196;2022-12-18T05:58:42;6.40;99.90
35920;DHT22;36160;53.370;-6.196;2022-12-18T06:03:35;6.40;99.90
35920;DHT22;36160;53.370;-6.196;2022-12-18T06:06:01;6.40;99.90
35920;DHT22;36160;53.370;-6.196;2022-12-18T06:08:27;6.40;99.90
35920;DHT22;36160;53.370;-6.196;2022-12-18T06:10:53;6.40;99.90
35920;DHT22;36160;53.370;-6.196;2022-12-18T06:13:19;6.50;99.90
35920;DHT22;36160;53.370;-6.196;2022-12-18T06:15:45;6.50;99.90
35920;DHT22;36160;53.370;-6.196;2022-12-18T06:18:10;6.50;99.90
35920;DHT22;36160;53.370;-6.196;2022-12-18T06:20:36;6.40;99.90
35920;DHT22;36160;53.370;-6.196;2022-12-18T06:23:05;6.50;99.90
35920;DHT22;36160;53.370;-6.196;2022-12-18T06:25:31;6.40;99.90
35920;DHT22;36160;53.370;-6.196;2022-12-18T06:27:57;6.50;99.90
35920;DHT22;36160;53.370;-6.196;2022-12-18T06:30:23;6.40;99.90
35920;DHT22;36160;53.370;-6.196;2022-12-18T06:32:49;6.40;99.90
35920;DHT22;36160;53.370;-6.196;2022-12-18T06:35:15;6.40;99.90
35920;DHT22;36160;53.370;-6.196;2022-12-18T06:37:41;6.40;99.90
35920;DHT22;36160;53.370;-6.196;2022-12-18T06:40:07;6.40;99.90
35920;DHT22;36160;53.370;-6.196;2022-12-18T06:42:33;6.40;99.90
35920;DHT22;36160;53.370;-6.196;2022-12-18T06:44:58;6.30;99.90
35920;DHT22;36160;53.370;-6.196;2022-12-18T06:47:24;6.30;99.90
35920;DHT22;36160;53.370;-6.196;2022-12-18T06:49:50;6.30;99.90
35920;DHT22;36160;53.370;-6.196;2022-12-18T06:52:15;6.30;99.90
35920;DHT22;36160;53.370;-6.196;2022-12-18T06:54:41;6.20;99.90
35920;DHT22;36160;53.370;-6.196;2022-12-18T06:57:06;6.20;99.90
35920;DHT22;36160;53.370;-6.196;2022-12-18T06:59:32;6.20;99.90
35920;DHT22;36160;53.370;-6.196;2022-12-18T07:01:58;6.20;99.90
35920;DHT22;36160;53.370;-6.196;2022-12-18T07:04:28;6.10;99.90
35920;DHT22;36160;53.370;-6.196;2022-12-18T07:06:54;6.10;99.90
35920;DHT22;36160;53.370;-6.196;2022-12-18T07:09:20;6.00;99.90
35920;DHT22;36160;53.370;-6.196;2022-12-18T07:11:45;6.00;99.90
35920;DHT22;36160;53.370;-6.196;2022-12-18T07:14:11;5.90;99.90
35920;DHT22;36160;53.370;-6.196;2022-12-18T07:16:37;5.90;99.90
35920;DHT22;36160;53.370;-6.196;2022-12-18T07:19:02;5.90;99.90
35920;DHT22;36160;53.370;-6.196;2022-12-18T07:21:28;6.00;99.90
35920;DHT22;36160;53.370;-6.196;2022-12-18T07:23:54;6.00;99.90
35920;DHT22;36160;53.370;-6.196;2022-12-18T07:26:21;5.90;99.90
35920;DHT22;36160;53.370;-6.196;2022-12-18T07:28:47;6.00;99.90
35920;DHT22;36160;53.370;-6.196;2022-12-18T07:31:19;6.00;99.90
35920;DHT22;36160;53.370;-6.196;2022-12-18T07:33:46;6.00;99.90
35920;DHT22;36160;53.370;-6.196;2022-12-18T07:36:11;6.00;99.90
35920;DHT22;36160;53.370;-6.196;2022-12-18T07:38:38;6.10;99.90
35920;DHT22;36160;53.370;-6.196;2022-12-18T07:41:05;6.10;99.90
35920;DHT22;36160;53.370;-6.196;2022-12-18T07:43:32;6.20;99.90
35920;DHT22;36160;53.370;-6.196;2022-12-18T07:45:58;6.20;99.90
35920;DHT22;36160;53.370;-6.196;2022-12-18T07:48:23;6.20;99.90
35920;DHT22;36160;53.370;-6.196;2022-12-18T07:50:49;6.20;99.90
35920;DHT22;36160;53.370;-6.196;2022-12-18T07:53:20;6.20;99.90
35920;DHT22;36160;53.370;-6.196;2022-12-18T07:55:46;6.30;99.90
35920;DHT22;36160;53.370;-6.196;2022-12-18T07:58:11;6.30;99.90
35920;DHT22;36160;53.370;-6.196;2022-12-18T08:00:38;6.20;99.90
35920;DHT22;36160;53.370;-6.196;2022-12-18T08:03:04;6.30;99.90
35920;DHT22;36160;53.370;-6.196;2022-12-18T08:05:29;6.20;99.90
35920;DHT22;36160;53.370;-6.196;2022-12-18T08:07:55;6.10;99.90
35920;DHT22;36160;53.370;-6.196;2022-12-18T08:10:21;6.10;99.90
35920;DHT22;36160;53.370;-6.196;2022-12-18T08:12:51;6.10;99.90
35920;DHT22;36160;53.370;-6.196;2022-12-18T08:15:17;6.10;99.90
35920;DHT22;36160;53.370;-6.196;2022-12-18T08:17:42;6.20;99.90
35920;DHT22;36160;53.370;-6.196;2022-12-18T08:20:09;6.10;99.90
35920;DHT22;36160;53.370;-6.196;2022-12-18T08:22:37;6.10;99.90
35920;DHT22;36160;53.370;-6.196;2022-12-18T08:25:05;6.10;99.90
35920;DHT22;36160;53.370;-6.196;2022-12-18T08:27:31;6.10;99.90
35920;DHT22;36160;53.370;-6.196;2022-12-18T08:29:57;6.00;99.90
35920;DHT22;36160;53.370;-6.196;2022-12-18T08:32:23;6.00;99.90
35920;DHT22;36160;53.370;-6.196;2022-12-18T08:34:50;6.00;99.90
35920;DHT22;36160;53.370;-6.196;2022-12-18T08:37:16;6.00;99.90
35920;DHT22;36160;53.370;-6.196;2022-12-18T08:39:42;6.00;99.90
35920;DHT22;36160;53.370;-6.196;2022-12-18T08:42:07;6.00;99.90
35920;DHT22;36160;53.370;-6.196;2022-12-18T08:44:52;6.00;99.90
35920;DHT22;36160;53.370;-6.196;2022-12-18T08:47:18;6.00;99.90
35920;DHT22;36160;53.370;-6.196;2022-12-18T08:49:44;6.00;99.90
35920;DHT22;36160;53.370;-6.196;2022-12-18T08:52:09;6.00;99.90
35920;DHT22;36160;53.370;-6.196;2022-12-18T08:54:36;5.90;99.90
35920;DHT22;36160;53.370;-6.196;2022-12-18T08:57:01;5.90;99.90
35920;DHT22;36160;53.370;-6.196;2022-12-18T08:59:28;6.00;99.90
35920;DHT22;36160;53.370;-6.196;2022-12-18T09:01:54;6.00;99.90
35920;DHT22;36160;53.370;-6.196;2022-12-18T09:04:20;5.90;99.90
35920;DHT22;36160;53.370;-6.196;2022-12-18T09:06:46;6.00;99.90
35920;DHT22;36160;53.370;-6.196;2022-12-18T09:09:12;5.90;99.90
35920;DHT22;36160;53.370;-6.196;2022-12-18T09:11:38;5.90;99.90
35920;DHT22;36160;53.370;-6.196;2022-12-18T09:14:04;5.90;99.90
35920;DHT22;36160;53.370;-6.196;2022-12-18T09:16:31;5.90;99.90
35920;DHT22;36160;53.370;-6.196;2022-12-18T09:18:58;5.90;99.90
35920;DHT22;36160;53.370;-6.196;2022-12-18T09:21:31;5.90;99.90
35920;DHT22;36160;53.370;-6.196;2022-12-18T09:23:57;5.90;99.90
35920;DHT22;36160;53.370;-6.196;2022-12-18T09:26:23;5.90;99.90
35920;DHT22;36160;53.370;-6.196;2022-12-18T09:28:50;6.00;99.90
35920;DHT22;36160;53.370;-6.196;2022-12-18T09:31:18;5.90;99.90
35920;DHT22;36160;53.370;-6.196;2022-12-18T09:33:44;6.00;99.90
35920;DHT22;36160;53.370;-6.196;2022-12-18T09:36:13;5.90;99.90
35920;DHT22;36160;53.370;-6.196;2022-12-18T09:38:39;5.80;99.90
35920;DHT22;36160;53.370;-6.196;2022-12-18T09:44:15;5.90;99.90
35920;DHT22;36160;53.370;-6.196;2022-12-18T09:47:18;5.90;99.90
35920;DHT22;36160;53.370;-6.196;2022-12-18T09:49:43;6.00;99.90
35920;DHT22;36160;53.370;-6.196;2022-12-18T09:52:11;5.90;99.90
35920;DHT22;36160;53.370;-6.196;2022-12-18T09:54:42;6.10;99.90
35920;DHT22;36160;53.370;-6.196;2022-12-18T09:57:18;6.00;99.90
35920;DHT22;36160;53.370;-6.196;2022-12-18T09:59:50;6.00;99.90
35920;DHT22;36160;53.370;-6.196;2022-12-18T10:02:22;6.10;99.90
35920;DHT22;36160;53.370;-6.196;2022-12-18T10:05:15;6.10;99.90
35920;DHT22;36160;53.370;-6.196;2022-12-18T10:10:53;6.00;99.90
35920;DHT22;36160;53.370;-6.196;2022-12-18T10:13:31;6.00;99.90
35920;DHT22;36160;53.370;-6.196;2022-12-18T10:18:50;6.10;99.90
35920;DHT22;36160;53.370;-6.196;2022-12-18T10:21:30;6.00;99.90
35920;DHT22;36160;53.370;-6.196;2022-12-18T10:26:38;6.10;99.90
35920;DHT22;36160;53.370;-6.196;2022-12-18T10:29:14;6.10;99.90
35920;DHT22;36160;53.370;-6.196;2022-12-18T10:31:41;6.10;99.90
35920;DHT22;36160;53.370;-6.196;2022-12-18T10:34:13;6.20;99.90
35920;DHT22;36160;53.370;-6.196;2022-12-18T10:36:38;6.20;99.90
35920;DHT22;36160;53.370;-6.196;2022-12-18T10:39:17;6.10;99.90
35920;DHT22;36160;53.370;-6.196;2022-12-18T10:41:43;6.10;99.90
35920;DHT22;36160;53.370;-6.196;2022-12-18T10:44:14;6.20;99.90
35920;DHT22;36160;53.370;-6.196;2022-12-18T10:46:41;6.20;99.90
35920;DHT22;36160;53.370;-6.196;2022-12-18T10:49:22;6.30;99.90
35920;DHT22;36160;53.370;-6.196;2022-12-18T10:51:49;6.20;99.90
35920;DHT22;36160;53.370;-6.196;2022-12-18T10:54:21;6.30;99.90
35920;DHT22;36160;53.370;-6.196;2022-12-18T10:56:48;6.30;99.90
35920;DHT22;36160;53.370;-6.196;2022-12-18T10:59:16;6.20;99.90
35920;DHT22;36160;53.370;-6.196;2022-12-18T11:04:37;6.30;99.90
35920;DHT22;36160;53.370;-6.196;2022-12-18T11:07:15;6.30;99.90
35920;DHT22;36160;53.370;-6.196;2022-12-18T11:09:40;6.30;99.90
35920;DHT22;36160;53.370;-6.196;2022-12-18T11:17:19;6.30;99.90
35920;DHT22;36160;53.370;-6.196;2022-12-18T11:19:56;6.40;99.90
35920;DHT22;36160;53.370;-6.196;2022-12-18T11:22:30;6.40;99.90
35920;DHT22;36160;53.370;-6.196;2022-12-18T11:25:18;6.40;99.90
35920;DHT22;36160;53.370;-6.196;2022-12-18T11:33:36;6.50;99.90
35920;DHT22;36160;53.370;-6.196;2022-12-18T11:36:03;6.50;99.90
35920;DHT22;36160;53.370;-6.196;2022-12-18T11:47:39;6.60;99.90
35920;DHT22;36160;53.370;-6.196;2022-12-18T11:50:31;6.80;99.90
35920;DHT22;36160;53.370;-6.196;2022-12-18T11:53:01;6.80;99.90
35920;DHT22;36160;53.370;-6.196;2022-12-18T11:55:39;6.80;99.90
35920;DHT22;36160;53.370;-6.196;2022-12-18T12:00:56;6.90;99.90
35920;DHT22;36160;53.370;-6.196;2022-12-18T12:06:50;7.00;99.90
35920;DHT22;36160;53.370;-6.196;2022-12-18T12:09:34;7.00;99.90
35920;DHT22;36160;53.370;-6.196;2022-12-18T12:25:19;7.30;99.90
35920;DHT22;36160;53.370;-6.196;2022-12-18T12:28:02;7.30;99.90
35920;DHT22;36160;53.370;-6.196;2022-12-18T12:31:13;7.40;99.90
35920;DHT22;36160;53.370;-6.196;2022-12-18T12:38:44;7.50;99.90
35920;DHT22;36160;53.370;-6.196;2022-12-18T12:41:18;7.50;99.90
35920;DHT22;36160;53.370;-6.196;2022-12-18T12:44:07;7.50;99.90
35920;DHT22;36160;53.370;-6.196;2022-12-18T12:46:39;7.50;99.90
35920;DHT22;36160;53.370;-6.196;2022-12-18T12:49:27;7.60;99.90
35920;DHT22;36160;53.370;-6.196;2022-12-18T12:54:27;7.70;99.90
35920;DHT22;36160;53.370;-6.196;2022-12-18T12:57:02;7.70;99.90
35920;DHT22;36160;53.370;-6.196;2022-12-18T12:59:47;7.80;99.90
35920;DHT22;36160;53.370;-6.196;2022-12-18T13:02:25;7.80;99.90
35920;DHT22;36160;53.370;-6.196;2022-12-18T13:07:54;7.90;99.90
35920;DHT22;36160;53.370;-6.196;2022-12-18T13:15:39;8.00;99.90
35920;DHT22;36160;53.370;-6.196;2022-12-18T13:20:46;8.10;99.90
35920;DHT22;36160;53.370;-6.196;2022-12-18T13:25:55;8.10;99.90
35920;DHT22;36160;53.370;-6.196;2022-12-18T13:31:13;8.20;99.90
35920;DHT22;36160;53.370;-6.196;2022-12-18T13:38:37;8.20;99.90
35920;DHT22;36160;53.370;-6.196;2022-12-18T13:43:46;8.20;99.90
35920;DHT22;36160;53.370;-6.196;2022-12-18T13:51:41;8.30;99.90
35920;DHT22;36160;53.370;-6.196;2022-12-18T13:54:37;8.30;99.90
35920;DHT22;36160;53.370;-6.196;2022-12-18T13:57:05;8.30;99.90
35920;DHT22;36160;53.370;-6.196;2022-12-18T13:59:49;8.30;99.90
35920;DHT22;36160;53.370;-6.196;2022-12-18T14:02:17;8.40;99.90
35920;DHT22;36160;53.370;-6.196;2022-12-18T14:04:48;8.40;99.90
35920;DHT22;36160;53.370;-6.196;2022-12-18T14:09:43;8.40;99.90
35920;DHT22;36160;53.370;-6.196;2022-12-18T14:15:02;8.40;99.90
35920;DHT22;36160;53.370;-6.196;2022-12-18T14:17:28;8.40;99.90
35920;DHT22;36160;53.370;-6.196;2022-12-18T14:19:54;8.40;99.90
35920;DHT22;36160;53.370;-6.196;2022-12-18T14:22:22;8.40;99.90
35920;DHT22;36160;53.370;-6.196;2022-12-18T14:27:41;8.50;99.90
35920;DHT22;36160;53.370;-6.196;2022-12-18T14:30:29;8.50;99.90
35920;DHT22;36160;53.370;-6.196;2022-12-18T14:35:51;8.60;99.90
35920;DHT22;36160;53.370;-6.196;2022-12-18T14:38:36;8.60;99.90
35920;DHT22;36160;53.370;-6.196;2022-12-18T14:41:12;8.60;99.90
35920;DHT22;36160;53.370;-6.196;2022-12-18T14:43:40;8.60;99.90
35920;DHT22;36160;53.370;-6.196;2022-12-18T14:49:32;8.60;99.90
35920;DHT22;36160;53.370;-6.196;2022-12-18T14:52:06;8.70;99.90
35920;DHT22;36160;53.370;-6.196;2022-12-18T14:54:40;8.70;99.90
35920;DHT22;36160;53.370;-6.196;2022-12-18T14:57:18;8.70;99.90
35920;DHT22;36160;53.370;-6.196;2022-12-18T14:59:46;8.70;99.90
35920;DHT22;36160;53.370;-6.196;2022-12-18T15:02:24;8.80;99.90
35920;DHT22;36160;53.370;-6.196;2022-12-18T15:07:43;8.80;99.90
35920;DHT22;36160;53.370;-6.196;2022-12-18T15:12:44;8.90;99.90
35920;DHT22;36160;53.370;-6.196;2022-12-18T15:18:02;8.90;99.90
35920;DHT22;36160;53.370;-6.196;2022-12-18T15:20:31;9.00;99.90
35920;DHT22;36160;53.370;-6.196;2022-12-18T15:22:58;9.10;99.90
35920;DHT22;36160;53.370;-6.196;2022-12-18T15:25:36;9.00;99.90
35920;DHT22;36160;53.370;-6.196;2022-12-18T15:28:04;9.10;99.90
35920;DHT22;36160;53.370;-6.196;2022-12-18T15:33:30;9.10;99.90
35920;DHT22;36160;53.370;-6.196;2022-12-18T15:36:01;9.10;99.90
35920;DHT22;36160;53.370;-6.196;2022-12-18T15:38:27;9.10;99.90
35920;DHT22;36160;53.370;-6.196;2022-12-18T15:40:53;9.10;99.90
35920;DHT22;36160;53.370;-6.196;2022-12-18T15:43:23;9.10;99.90
35920;DHT22;36160;53.370;-6.196;2022-12-18T15:46:07;9.20;99.90
35920;DHT22;36160;53.370;-6.196;2022-12-18T15:48:38;9.10;99.90
35920;DHT22;36160;53.370;-6.196;2022-12-18T15:51:07;9.10;99.90
35920;DHT22;36160;53.370;-6.196;2022-12-18T15:53:36;9.10;99.90
35920;DHT22;36160;53.370;-6.196;2022-12-18T15:56:07;9.10;99.90
35920;DHT22;36160;53.370;-6.196;2022-12-18T15:58:51;9.10;99.90
35920;DHT22;36160;53.370;-6.196;2022-12-18T16:01:17;9.10;99.90
35920;DHT22;36160;53.370;-6.196;2022-12-18T16:03:43;9.20;99.90
35920;DHT22;36160;53.370;-6.196;2022-12-18T16:06:09;9.10;99.90
35920;DHT22;36160;53.370;-6.196;2022-12-18T16:08:35;9.20;99.90
35920;DHT22;36160;53.370;-6.196;2022-12-18T16:11:01;9.20;99.90
35920;DHT22;36160;53.370;-6.196;2022-12-18T16:13:27;9.30;99.90
35920;DHT22;36160;53.370;-6.196;2022-12-18T16:15:53;9.30;99.90
35920;DHT22;36160;53.370;-6.196;2022-12-18T16:18:19;9.30;99.90
35920;DHT22;36160;53.370;-6.196;2022-12-18T16:20:45;9.30;99.90
35920;DHT22;36160;53.370;-6.196;2022-12-18T16:23:20;9.20;99.90
35920;DHT22;36160;53.370;-6.196;2022-12-18T16:25:46;9.20;99.90
35920;DHT22;36160;53.370;-6.196;2022-12-18T16:28:14;9.20;99.90
35920;DHT22;36160;53.370;-6.196;2022-12-18T16:30:40;9.20;99.90
35920;DHT22;36160;53.370;-6.196;2022-12-18T16:33:06;9.20;99.90
35920;DHT22;36160;53.370;-6.196;2022-12-18T16:35:33;9.20;99.90
35920;DHT22;36160;53.370;-6.196;2022-12-18T16:38:03;9.30;99.90
35920;DHT22;36160;53.370;-6.196;2022-12-18T16:40:33;9.20;99.90
35920;DHT22;36160;53.370;-6.196;2022-12-18T16:43:21;9.20;99.90
35920;DHT22;36160;53.370;-6.196;2022-12-18T16:45:46;9.20;99.90
35920;DHT22;36160;53.370;-6.196;2022-12-18T16:48:12;9.20;99.90
35920;DHT22;36160;53.370;-6.196;2022-12-18T16:50:42;9.20;99.90
35920;DHT22;36160;53.370;-6.196;2022-12-18T16:53:13;9.30;99.90
35920;DHT22;36160;53.370;-6.196;2022-12-18T16:55:39;9.20;99.90
35920;DHT22;36160;53.370;-6.196;2022-12-18T16:58:08;9.30;99.90
35920;DHT22;36160;53.370;-6.196;2022-12-18T17:00:55;9.30;99.90
35920;DHT22;36160;53.370;-6.196;2022-12-18T17:03:21;9.40;99.90
35920;DHT22;36160;53.370;-6.196;2022-12-18T17:05:46;9.50;99.90
35920;DHT22;36160;53.370;-6.196;2022-12-18T17:08:14;9.60;99.90
35920;DHT22;36160;53.370;-6.196;2022-12-18T17:10:39;9.70;99.90
35920;DHT22;36160;53.370;-6.196;2022-12-18T17:13:05;9.60;99.90
35920;DHT22;36160;53.370;-6.196;2022-12-18T17:15:34;9.70;99.90
35920;DHT22;36160;53.370;-6.196;2022-12-18T17:18:04;9.70;99.90
35920;DHT22;36160;53.370;-6.196;2022-12-18T17:20:31;9.60;99.90
35920;DHT22;36160;53.370;-6.196;2022-12-18T17:22:57;9.60;99.90
35920;DHT22;36160;53.370;-6.196;2022-12-18T17:25:31;9.70;99.90
35920;DHT22;36160;53.370;-6.196;2022-12-18T17:27:57;9.70;99.90
35920;DHT22;36160;53.370;-6.196;2022-12-18T17:30:22;9.80;99.90
35920;DHT22;36160;53.370;-6.196;2022-12-18T17:32:48;9.70;99.90
35920;DHT22;36160;53.370;-6.196;2022-12-18T17:35:18;9.80;99.90
35920;DHT22;36160;53.370;-6.196;2022-12-18T17:37:44;9.90;99.90
35920;DHT22;36160;53.370;-6.196;2022-12-18T17:40:13;9.80;99.90
35920;DHT22;36160;53.370;-6.196;2022-12-18T17:42:38;9.90;99.90
35920;DHT22;36160;53.370;-6.196;2022-12-18T17:45:04;9.90;99.90
35920;DHT22;36160;53.370;-6.196;2022-12-18T17:47:32;9.80;99.90
35920;DHT22;36160;53.370;-6.196;2022-12-18T17:49:58;9.80;99.90
35920;DHT22;36160;53.370;-6.196;2022-12-18T17:52:24;9.80;99.90
35920;DHT22;36160;53.370;-6.196;2022-12-18T17:54:50;9.70;99.90